sensor_id;sensor_type;location;lat;lon;timestamp;temperature;humidity
65826;DHT22;52586;-43.152;172.732;2023-07-31T00:01:47;13.40;60.80
65826;DHT22;52586;-43.152;172.732;2023-07-31T00:04:20;13.40;60.80
65826;DHT22;52586;-43.152;172.732;2023-07-31T00:06:51;13.40;60.80
65826;DHT22;52586;-43.152;172.732;2023-07-31T00:09:21;13.50;60.80
65826;DHT22;52586;-43.152;172.732;2023-07-31T00:11:52;13.50;60.80
65826;DHT22;52586;-43.152;172.732;2023-07-31T00:14:22;13.60;60.80
65826;DHT22;52586;-43.152;172.732;2023-07-31T00:16:53;13.60;60.80
65826;DHT22;52586;-43.152;172.732;2023-07-31T00:19:26;13.60;60.80
65826;DHT22;52586;-43.152;172.732;2023-07-31T00:21:56;13.60;60.70
65826;DHT22;52586;-43.152;172.732;2023-07-31T00:24:27;13.70;60.70
65826;DHT22;52586;-43.152;172.732;2023-07-31T00:26:58;13.70;60.60
65826;DHT22;52586;-43.152;172.732;2023-07-31T00:29:28;13.70;60.60
65826;DHT22;52586;-43.152;172.732;2023-07-31T00:31:59;13.80;60.70
65826;DHT22;52586;-43.152;172.732;2023-07-31T00:34:31;13.80;60.60
65826;DHT22;52586;-43.152;172.732;2023-07-31T00:37:02;13.80;60.70
65826;DHT22;52586;-43.152;172.732;2023-07-31T00:39:33;13.90;60.80
65826;DHT22;52586;-43.152;172.732;2023-07-31T00:42:04;13.90;60.90
65826;DHT22;52586;-43.152;172.732;2023-07-31T00:44:35;13.90;60.90
65826;DHT22;52586;-43.152;172.732;2023-07-31T00:47:06;14.00;60.90
65826;DHT22;52586;-43.152;172.732;2023-07-31T00:49:39;14.00;60.80
65826;DHT22;52586;-43.152;172.732;2023-07-31T00:52:10;14.10;60.80
65826;DHT22;52586;-43.152;172.732;2023-07-31T00:54:41;14.10;60.70
65826;DHT22;52586;-43.152;172.732;2023-07-31T00:57:11;14.10;60.80
65826;DHT22;52586;-43.152;172.732;2023-07-31T00:59:42;14.20;60.90
65826;DHT22;52586;-43.152;172.732;2023-07-31T01:02:14;14.20;60.90
65826;DHT22;52586;-43.152;172.732;2023-07-31T01:04:47;14.30;60.90
65826;DHT22;52586;-43.152;172.732;2023-07-31T01:07:37;14.30;60.80
65826;DHT22;52586;-43.152;172.732;2023-07-31T01:10:14;14.30;60.80
65826;DHT22;52586;-43.152;172.732;2023-07-31T01:12:46;14.40;60.70
65826;DHT22;52586;-43.152;172.732;2023-07-31T01:15:18;14.40;60.60
65826;DHT22;52586;-43.152;172.732;2023-07-31T01:17:49;14.50;60.70
65826;DHT22;52586;-43.152;172.732;2023-07-31T01:20:23;14.50;60.70
65826;DHT22;52586;-43.152;172.732;2023-07-31T01:23:26;14.50;60.60
65826;DHT22;52586;-43.152;172.732;2023-07-31T01:26:08;14.60;60.70
65826;DHT22;52586;-43.152;172.732;2023-07-31T01:28:50;14.60;60.60
65826;DHT22;52586;-43.152;172.732;2023-07-31T01:31:25;14.60;60.50
65826;DHT22;52586;-43.152;172.732;2023-07-31T01:33:57;14.70;60.50
65826;DHT22;52586;-43.152;172.732;2023-07-31T01:36:28;14.70;60.60
65826;DHT22;52586;-43.152;172.732;2023-07-31T01:39:00;14.80;60.50
65826;DHT22;52586;-43.152;172.732;2023-07-31T01:41:33;14.80;60.40
65826;DHT22;52586;-43.152;172.732;2023-07-31T01:44:04;14.90;60.50
65826;DHT22;52586;-43.152;172.732;2023-07-31T01:46:35;14.90;60.40
65826;DHT22;52586;-43.152;172.732;2023-07-31T01:49:06;14.90;60.30
65826;DHT22;52586;-43.152;172.732;2023-07-31T01:51:37;14.90;60.30
65826;DHT22;52586;-43.152;172.732;2023-07-31T01:54:07;15.00;60.30
65826;DHT22;52586;-43.152;172.732;2023-07-31T01:56:40;15.00;60.20
65826;DHT22;52586;-43.152;172.732;2023-07-31T01:59:11;15.00;60.10
65826;DHT22;52586;-43.152;172.732;2023-07-31T02:01:41;15.10;60.20
65826;DHT22;52586;-43.152;172.732;2023-07-31T02:04:12;15.10;60.20
65826;DHT22;52586;-43.152;172.732;2023-07-31T02:06:43;15.10;60.20
65826;DHT22;52586;-43.152;172.732;2023-07-31T02:09:13;15.20;60.20
65826;DHT22;52586;-43.152;172.732;2023-07-31T02:11:46;15.20;60.10
65826;DHT22;52586;-43.152;172.732;2023-07-31T02:14:16;15.30;60.20
65826;DHT22;52586;-43.152;172.732;2023-07-31T02:16:47;15.30;60.10
65826;DHT22;52586;-43.152;172.732;2023-07-31T02:19:18;15.40;60.10
65826;DHT22;52586;-43.152;172.732;2023-07-31T02:21:48;15.40;60.10
65826;DHT22;52586;-43.152;172.732;2023-07-31T02:24:19;15.40;60.10
65826;DHT22;52586;-43.152;172.732;2023-07-31T02:26:51;15.40;60.10
65826;DHT22;52586;-43.152;172.732;2023-07-31T02:29:22;15.50;60.00
65826;DHT22;52586;-43.152;172.732;2023-07-31T02:31:52;15.50;60.10
65826;DHT22;52586;-43.152;172.732;2023-07-31T02:34:23;15.50;60.00
65826;DHT22;52586;-43.152;172.732;2023-07-31T02:36:54;15.60;60.00
65826;DHT22;52586;-43.152;172.732;2023-07-31T02:39:24;15.60;59.90
65826;DHT22;52586;-43.152;172.732;2023-07-31T02:41:57;15.70;60.00
65826;DHT22;52586;-43.152;172.732;2023-07-31T02:44:28;15.70;59.90
65826;DHT22;52586;-43.152;172.732;2023-07-31T02:46:58;15.80;60.00
65826;DHT22;52586;-43.152;172.732;2023-07-31T02:49:29;15.80;59.90
65826;DHT22;52586;-43.152;172.732;2023-07-31T02:51:59;15.80;59.90
65826;DHT22;52586;-43.152;172.732;2023-07-31T02:54:30;15.90;59.90
65826;DHT22;52586;-43.152;172.732;2023-07-31T02:57:03;15.90;59.90
65826;DHT22;52586;-43.152;172.732;2023-07-31T02:59:33;15.90;59.80
65826;DHT22;52586;-43.152;172.732;2023-07-31T03:02:04;16.00;59.80
65826;DHT22;52586;-43.152;172.732;2023-07-31T03:04:35;16.00;59.80
65826;DHT22;52586;-43.152;172.732;2023-07-31T03:07:06;16.00;59.70
65826;DHT22;52586;-43.152;172.732;2023-07-31T03:09:36;16.10;59.70
65826;DHT22;52586;-43.152;172.732;2023-07-31T03:12:09;16.10;59.70
65826;DHT22;52586;-43.152;172.732;2023-07-31T03:14:40;16.10;59.60
65826;DHT22;52586;-43.152;172.732;2023-07-31T03:17:11;16.20;59.60
65826;DHT22;52586;-43.152;172.732;2023-07-31T03:19:42;16.20;59.50
65826;DHT22;52586;-43.152;172.732;2023-07-31T03:22:12;16.20;59.50
65826;DHT22;52586;-43.152;172.732;2023-07-31T03:24:56;16.20;59.40
65826;DHT22;52586;-43.152;172.732;2023-07-31T03:27:26;16.30;59.50
65826;DHT22;52586;-43.152;172.732;2023-07-31T03:29:57;16.30;59.40
65826;DHT22;52586;-43.152;172.732;2023-07-31T03:32:28;16.30;59.40
65826;DHT22;52586;-43.152;172.732;2023-07-31T03:34:59;16.30;59.80
65826;DHT22;52586;-43.152;172.732;2023-07-31T03:37:29;16.40;59.30
65826;DHT22;52586;-43.152;172.732;2023-07-31T03:40:02;16.40;59.20
65826;DHT22;52586;-43.152;172.732;2023-07-31T03:42:33;16.40;59.20
65826;DHT22;52586;-43.152;172.732;2023-07-31T03:45:04;16.40;59.20
65826;DHT22;52586;-43.152;172.732;2023-07-31T03:47:35;16.40;59.10
65826;DHT22;52586;-43.152;172.732;2023-07-31T03:50:06;16.50;59.10
65826;DHT22;52586;-43.152;172.732;2023-07-31T03:52:37;16.50;59.10
65826;DHT22;52586;-43.152;172.732;2023-07-31T03:55:10;16.50;59.00
65826;DHT22;52586;-43.152;172.732;2023-07-31T03:57:40;16.50;58.90
65826;DHT22;52586;-43.152;172.732;2023-07-31T04:00:12;16.50;58.90
65826;DHT22;52586;-43.152;172.732;2023-07-31T04:02:42;16.50;58.80
65826;DHT22;52586;-43.152;172.732;2023-07-31T04:05:13;16.50;58.70
65826;DHT22;52586;-43.152;172.732;2023-07-31T04:07:44;16.50;58.70
65826;DHT22;52586;-43.152;172.732;2023-07-31T04:10:16;16.60;58.70
65826;DHT22;52586;-43.152;172.732;2023-07-31T04:12:47;16.60;58.70
65826;DHT22;52586;-43.152;172.732;2023-07-31T04:15:18;16.60;58.60
65826;DHT22;52586;-43.152;172.732;2023-07-31T04:17:48;16.60;58.50
65826;DHT22;52586;-43.152;172.732;2023-07-31T04:20:19;16.60;58.30
65826;DHT22;52586;-43.152;172.732;2023-07-31T04:22:50;16.70;58.20
65826;DHT22;52586;-43.152;172.732;2023-07-31T04:25:22;16.70;58.00
65826;DHT22;52586;-43.152;172.732;2023-07-31T04:27:53;16.70;57.90
65826;DHT22;52586;-43.152;172.732;2023-07-31T04:30:24;16.70;57.90
65826;DHT22;52586;-43.152;172.732;2023-07-31T04:32:55;16.80;57.90
65826;DHT22;52586;-43.152;172.732;2023-07-31T04:35:25;16.80;58.40
65826;DHT22;52586;-43.152;172.732;2023-07-31T04:37:56;16.80;58.40
65826;DHT22;52586;-43.152;172.732;2023-07-31T04:40:28;16.90;57.80
65826;DHT22;52586;-43.152;172.732;2023-07-31T04:42:59;16.90;57.70
65826;DHT22;52586;-43.152;172.732;2023-07-31T04:45:30;16.90;57.70
65826;DHT22;52586;-43.152;172.732;2023-07-31T04:48:00;16.90;57.60
65826;DHT22;52586;-43.152;172.732;2023-07-31T04:50:31;17.00;57.60
65826;DHT22;52586;-43.152;172.732;2023-07-31T04:53:01;17.00;57.60
65826;DHT22;52586;-43.152;172.732;2023-07-31T04:55:34;17.00;57.70
65826;DHT22;52586;-43.152;172.732;2023-07-31T04:58:05;17.00;57.70
65826;DHT22;52586;-43.152;172.732;2023-07-31T05:00:35;17.10;57.70
65826;DHT22;52586;-43.152;172.732;2023-07-31T05:03:06;17.10;57.80
65826;DHT22;52586;-43.152;172.732;2023-07-31T05:05:38;17.10;57.80
65826;DHT22;52586;-43.152;172.732;2023-07-31T05:08:09;17.10;57.80
65826;DHT22;52586;-43.152;172.732;2023-07-31T05:10:41;17.10;57.60
65826;DHT22;52586;-43.152;172.732;2023-07-31T05:13:12;17.10;57.50
65826;DHT22;52586;-43.152;172.732;2023-07-31T05:15:42;17.10;57.40
65826;DHT22;52586;-43.152;172.732;2023-07-31T05:18:13;17.10;57.40
65826;DHT22;52586;-43.152;172.732;2023-07-31T05:20:44;17.10;57.40
65826;DHT22;52586;-43.152;172.732;2023-07-31T05:23:14;17.10;57.40
65826;DHT22;52586;-43.152;172.732;2023-07-31T05:25:47;17.10;57.40
65826;DHT22;52586;-43.152;172.732;2023-07-31T05:28:17;17.10;57.40
65826;DHT22;52586;-43.152;172.732;2023-07-31T05:30:48;17.20;57.40
65826;DHT22;52586;-43.152;172.732;2023-07-31T05:33:18;17.20;57.40
65826;DHT22;52586;-43.152;172.732;2023-07-31T05:35:49;17.20;57.40
65826;DHT22;52586;-43.152;172.732;2023-07-31T05:38:20;17.20;57.40
65826;DHT22;52586;-43.152;172.732;2023-07-31T05:40:52;17.20;57.50
65826;DHT22;52586;-43.152;172.732;2023-07-31T05:43:23;17.20;57.50
65826;DHT22;52586;-43.152;172.732;2023-07-31T05:45:54;17.20;57.50
65826;DHT22;52586;-43.152;172.732;2023-07-31T05:48:24;17.20;57.50
65826;DHT22;52586;-43.152;172.732;2023-07-31T05:50:55;17.20;57.40
65826;DHT22;52586;-43.152;172.732;2023-07-31T05:53:26;17.20;57.40
65826;DHT22;52586;-43.152;172.732;2023-07-31T05:55:58;17.20;57.40
65826;DHT22;52586;-43.152;172.732;2023-07-31T05:58:29;17.10;57.30
65826;DHT22;52586;-43.152;172.732;2023-07-31T06:00:59;17.10;57.20
65826;DHT22;52586;-43.152;172.732;2023-07-31T06:03:30;17.10;57.10
65826;DHT22;52586;-43.152;172.732;2023-07-31T06:06:00;17.10;56.90
65826;DHT22;52586;-43.152;172.732;2023-07-31T06:08:31;17.10;56.90
65826;DHT22;52586;-43.152;172.732;2023-07-31T06:11:03;17.10;56.80
65826;DHT22;52586;-43.152;172.732;2023-07-31T06:13:35;17.10;57.40
65826;DHT22;52586;-43.152;172.732;2023-07-31T06:16:05;17.10;56.80
65826;DHT22;52586;-43.152;172.732;2023-07-31T06:18:36;17.10;56.80
65826;DHT22;52586;-43.152;172.732;2023-07-31T06:21:07;17.10;56.80
65826;DHT22;52586;-43.152;172.732;2023-07-31T06:23:37;17.10;56.70
65826;DHT22;52586;-43.152;172.732;2023-07-31T06:26:10;17.10;56.60
65826;DHT22;52586;-43.152;172.732;2023-07-31T06:28:41;17.10;56.60
65826;DHT22;52586;-43.152;172.732;2023-07-31T06:31:11;17.10;56.60
65826;DHT22;52586;-43.152;172.732;2023-07-31T06:33:42;17.10;56.60
65826;DHT22;52586;-43.152;172.732;2023-07-31T06:36:13;17.10;56.60
65826;DHT22;52586;-43.152;172.732;2023-07-31T06:38:43;17.10;56.60
65826;DHT22;52586;-43.152;172.732;2023-07-31T06:41:16;17.10;56.60
65826;DHT22;52586;-43.152;172.732;2023-07-31T06:43:46;17.10;56.60
65826;DHT22;52586;-43.152;172.732;2023-07-31T06:46:17;17.10;56.70
65826;DHT22;52586;-43.152;172.732;2023-07-31T06:48:48;17.10;56.60
65826;DHT22;52586;-43.152;172.732;2023-07-31T06:51:18;17.10;56.50
65826;DHT22;52586;-43.152;172.732;2023-07-31T06:53:49;17.00;56.40
65826;DHT22;52586;-43.152;172.732;2023-07-31T06:56:22;17.00;56.40
65826;DHT22;52586;-43.152;172.732;2023-07-31T06:58:53;17.10;56.40
65826;DHT22;52586;-43.152;172.732;2023-07-31T07:01:24;17.10;56.50
65826;DHT22;52586;-43.152;172.732;2023-07-31T07:03:55;17.10;56.50
65826;DHT22;52586;-43.152;172.732;2023-07-31T07:06:26;17.10;56.40
65826;DHT22;52586;-43.152;172.732;2023-07-31T07:08:56;17.00;56.30
65826;DHT22;52586;-43.152;172.732;2023-07-31T07:11:29;17.00;56.30
65826;DHT22;52586;-43.152;172.732;2023-07-31T07:13:59;17.00;56.30
65826;DHT22;52586;-43.152;172.732;2023-07-31T07:16:30;17.10;56.30
65826;DHT22;52586;-43.152;172.732;2023-07-31T07:19:00;17.00;56.20
65826;DHT22;52586;-43.152;172.732;2023-07-31T07:21:31;17.00;56.30
65826;DHT22;52586;-43.152;172.732;2023-07-31T07:24:02;17.00;56.40
65826;DHT22;52586;-43.152;172.732;2023-07-31T07:26:34;17.00;56.40
65826;DHT22;52586;-43.152;172.732;2023-07-31T07:29:05;17.00;56.50
65826;DHT22;52586;-43.152;172.732;2023-07-31T07:31:35;17.00;56.50
65826;DHT22;52586;-43.152;172.732;2023-07-31T07:34:06;17.00;56.40
65826;DHT22;52586;-43.152;172.732;2023-07-31T07:36:37;17.00;56.50
65826;DHT22;52586;-43.152;172.732;2023-07-31T07:39:08;17.00;56.40
65826;DHT22;52586;-43.152;172.732;2023-07-31T07:41:40;17.00;56.90
65826;DHT22;52586;-43.152;172.732;2023-07-31T07:44:11;17.00;56.30
65826;DHT22;52586;-43.152;172.732;2023-07-31T07:46:41;17.00;56.30
65826;DHT22;52586;-43.152;172.732;2023-07-31T07:49:12;17.00;56.30
65826;DHT22;52586;-43.152;172.732;2023-07-31T07:51:43;16.90;56.30
65826;DHT22;52586;-43.152;172.732;2023-07-31T07:54:13;16.90;56.30
65826;DHT22;52586;-43.152;172.732;2023-07-31T07:56:46;16.90;56.30
65826;DHT22;52586;-43.152;172.732;2023-07-31T07:59:17;16.90;56.30
65826;DHT22;52586;-43.152;172.732;2023-07-31T08:01:48;16.90;56.30
65826;DHT22;52586;-43.152;172.732;2023-07-31T08:04:18;16.90;56.30
65826;DHT22;52586;-43.152;172.732;2023-07-31T08:06:49;16.90;56.40
65826;DHT22;52586;-43.152;172.732;2023-07-31T08:09:19;16.90;56.30
65826;DHT22;52586;-43.152;172.732;2023-07-31T08:11:52;16.90;56.30
65826;DHT22;52586;-43.152;172.732;2023-07-31T08:14:24;16.90;56.30
65826;DHT22;52586;-43.152;172.732;2023-07-31T08:16:55;16.90;56.30
65826;DHT22;52586;-43.152;172.732;2023-07-31T08:19:26;16.90;56.30
65826;DHT22;52586;-43.152;172.732;2023-07-31T08:21:56;16.90;56.30
65826;DHT22;52586;-43.152;172.732;2023-07-31T08:24:27;16.90;56.30
65826;DHT22;52586;-43.152;172.732;2023-07-31T08:26:59;16.90;56.00
65826;DHT22;52586;-43.152;172.732;2023-07-31T08:29:30;16.90;55.70
65826;DHT22;52586;-43.152;172.732;2023-07-31T08:32:01;16.90;55.60
65826;DHT22;52586;-43.152;172.732;2023-07-31T08:34:31;16.90;55.40
65826;DHT22;52586;-43.152;172.732;2023-07-31T08:37:02;16.80;55.30
65826;DHT22;52586;-43.152;172.732;2023-07-31T08:39:32;16.80;55.50
65826;DHT22;52586;-43.152;172.732;2023-07-31T08:42:07;16.80;55.30
65826;DHT22;52586;-43.152;172.732;2023-07-31T08:44:39;16.80;55.30
65826;DHT22;52586;-43.152;172.732;2023-07-31T08:47:11;16.80;55.20
65826;DHT22;52586;-43.152;172.732;2023-07-31T08:49:43;16.80;55.20
65826;DHT22;52586;-43.152;172.732;2023-07-31T08:52:14;16.80;55.20
65826;DHT22;52586;-43.152;172.732;2023-07-31T08:54:45;16.80;55.30
65826;DHT22;52586;-43.152;172.732;2023-07-31T08:57:18;16.80;55.40
65826;DHT22;52586;-43.152;172.732;2023-07-31T08:59:48;16.80;55.50
65826;DHT22;52586;-43.152;172.732;2023-07-31T09:02:20;16.80;55.50
65826;DHT22;52586;-43.152;172.732;2023-07-31T09:04:51;16.80;55.50
65826;DHT22;52586;-43.152;172.732;2023-07-31T09:07:22;16.80;55.50
65826;DHT22;52586;-43.152;172.732;2023-07-31T09:09:54;16.80;55.50
65826;DHT22;52586;-43.152;172.732;2023-07-31T09:12:27;16.80;55.50
65826;DHT22;52586;-43.152;172.732;2023-07-31T09:14:58;16.80;55.50
65826;DHT22;52586;-43.152;172.732;2023-07-31T09:17:32;16.80;55.60
65826;DHT22;52586;-43.152;172.732;2023-07-31T09:20:15;16.70;55.60
65826;DHT22;52586;-43.152;172.732;2023-07-31T09:22:46;16.70;55.60
65826;DHT22;52586;-43.152;172.732;2023-07-31T09:25:18;16.80;55.60
65826;DHT22;52586;-43.152;172.732;2023-07-31T09:27:52;16.70;55.60
65826;DHT22;52586;-43.152;172.732;2023-07-31T09:30:23;16.70;55.60
65826;DHT22;52586;-43.152;172.732;2023-07-31T09:33:03;16.70;55.60
65826;DHT22;52586;-43.152;172.732;2023-07-31T09:35:34;16.80;55.60
65826;DHT22;52586;-43.152;172.732;2023-07-31T09:38:07;16.80;55.60
65826;DHT22;52586;-43.152;172.732;2023-07-31T09:40:38;16.80;55.70
65826;DHT22;52586;-43.152;172.732;2023-07-31T09:43:12;16.80;55.70
65826;DHT22;52586;-43.152;172.732;2023-07-31T09:45:43;16.80;55.70
65826;DHT22;52586;-43.152;172.732;2023-07-31T09:48:15;16.70;55.70
65826;DHT22;52586;-43.152;172.732;2023-07-31T09:50:47;16.70;55.70
65826;DHT22;52586;-43.152;172.732;2023-07-31T09:53:18;16.70;55.70
65826;DHT22;52586;-43.152;172.732;2023-07-31T09:55:49;16.80;55.80
65826;DHT22;52586;-43.152;172.732;2023-07-31T09:58:21;16.80;56.40
65826;DHT22;52586;-43.152;172.732;2023-07-31T10:00:52;16.70;55.70
65826;DHT22;52586;-43.152;172.732;2023-07-31T10:03:23;16.70;55.70
65826;DHT22;52586;-43.152;172.732;2023-07-31T10:05:56;16.80;55.80
65826;DHT22;52586;-43.152;172.732;2023-07-31T10:08:30;16.80;55.70
65826;DHT22;52586;-43.152;172.732;2023-07-31T10:11:01;16.80;55.60
65826;DHT22;52586;-43.152;172.732;2023-07-31T10:13:34;16.80;55.60
65826;DHT22;52586;-43.152;172.732;2023-07-31T10:16:05;16.80;55.60
65826;DHT22;52586;-43.152;172.732;2023-07-31T10:18:36;16.80;55.60
65826;DHT22;52586;-43.152;172.732;2023-07-31T10:21:07;16.80;55.70
65826;DHT22;52586;-43.152;172.732;2023-07-31T10:23:38;16.80;55.70
65826;DHT22;52586;-43.152;172.732;2023-07-31T10:26:09;16.80;55.70
65826;DHT22;52586;-43.152;172.732;2023-07-31T10:28:42;16.80;55.60
65826;DHT22;52586;-43.152;172.732;2023-07-31T10:31:14;16.80;55.60
65826;DHT22;52586;-43.152;172.732;2023-07-31T10:33:45;16.80;55.60
65826;DHT22;52586;-43.152;172.732;2023-07-31T10:36:18;16.80;55.60
65826;DHT22;52586;-43.152;172.732;2023-07-31T10:38:50;16.80;55.60
65826;DHT22;52586;-43.152;172.732;2023-07-31T10:41:24;16.80;55.60
65826;DHT22;52586;-43.152;172.732;2023-07-31T10:44:01;16.80;55.60
65826;DHT22;52586;-43.152;172.732;2023-07-31T10:46:32;16.80;55.60
65826;DHT22;52586;-43.152;172.732;2023-07-31T10:49:03;16.80;55.60
65826;DHT22;52586;-43.152;172.732;2023-07-31T10:51:36;16.80;55.60
65826;DHT22;52586;-43.152;172.732;2023-07-31T10:54:14;16.80;55.60
65826;DHT22;52586;-43.152;172.732;2023-07-31T10:56:47;16.80;55.50
65826;DHT22;52586;-43.152;172.732;2023-07-31T10:59:27;16.80;55.50
65826;DHT22;52586;-43.152;172.732;2023-07-31T11:02:05;16.80;55.50
65826;DHT22;52586;-43.152;172.732;2023-07-31T11:04:35;16.80;55.50
65826;DHT22;52586;-43.152;172.732;2023-07-31T11:07:06;16.80;55.60
65826;DHT22;52586;-43.152;172.732;2023-07-31T11:09:38;16.70;55.40
65826;DHT22;52586;-43.152;172.732;2023-07-31T11:12:09;16.80;55.40
65826;DHT22;52586;-43.152;172.732;2023-07-31T11:14:41;16.80;55.40
65826;DHT22;52586;-43.152;172.732;2023-07-31T11:17:12;16.80;55.40
65826;DHT22;52586;-43.152;172.732;2023-07-31T11:19:42;16.80;55.40
65826;DHT22;52586;-43.152;172.732;2023-07-31T11:22:13;16.80;55.50
65826;DHT22;52586;-43.152;172.732;2023-07-31T11:24:44;16.80;55.50
65826;DHT22;52586;-43.152;172.732;2023-07-31T11:27:15;16.80;55.50
65826;DHT22;52586;-43.152;172.732;2023-07-31T11:29:47;16.80;55.40
65826;DHT22;52586;-43.152;172.732;2023-07-31T11:32:21;16.80;55.50
65826;DHT22;52586;-43.152;172.732;2023-07-31T11:34:54;16.80;55.40
65826;DHT22;52586;-43.152;172.732;2023-07-31T11:37:25;16.80;55.30
65826;DHT22;52586;-43.152;172.732;2023-07-31T11:40:09;16.80;55.20
65826;DHT22;52586;-43.152;172.732;2023-07-31T11:42:39;16.80;55.20
65826;DHT22;52586;-43.152;172.732;2023-07-31T11:45:12;16.80;55.30
65826;DHT22;52586;-43.152;172.732;2023-07-31T11:47:43;16.70;55.30
65826;DHT22;52586;-43.152;172.732;2023-07-31T11:50:14;16.70;55.30
65826;DHT22;52586;-43.152;172.732;2023-07-31T11:52:46;16.80;55.30
65826;DHT22;52586;-43.152;172.732;2023-07-31T11:55:18;16.80;55.30
65826;DHT22;52586;-43.152;172.732;2023-07-31T11:57:49;16.80;55.20
65826;DHT22;52586;-43.152;172.732;2023-07-31T12:00:23;16.70;55.30
65826;DHT22;52586;-43.152;172.732;2023-07-31T12:02:54;16.70;55.30
65826;DHT22;52586;-43.152;172.732;2023-07-31T12:05:24;16.70;55.30
65826;DHT22;52586;-43.152;172.732;2023-07-31T12:07:56;16.70;55.30
65826;DHT22;52586;-43.152;172.732;2023-07-31T12:10:28;16.70;55.30
65826;DHT22;52586;-43.152;172.732;2023-07-31T12:13:00;16.80;55.40
65826;DHT22;52586;-43.152;172.732;2023-07-31T12:15:34;16.80;55.40
65826;DHT22;52586;-43.152;172.732;2023-07-31T12:18:10;16.80;55.30
65826;DHT22;52586;-43.152;172.732;2023-07-31T12:20:44;16.70;55.20
65826;DHT22;52586;-43.152;172.732;2023-07-31T12:23:20;16.70;55.10
65826;DHT22;52586;-43.152;172.732;2023-07-31T12:26:01;16.70;55.10
65826;DHT22;52586;-43.152;172.732;2023-07-31T12:28:35;16.70;54.90
65826;DHT22;52586;-43.152;172.732;2023-07-31T12:31:10;16.70;54.90
65826;DHT22;52586;-43.152;172.732;2023-07-31T12:33:41;16.70;55.00
65826;DHT22;52586;-43.152;172.732;2023-07-31T12:36:13;16.70;54.90
65826;DHT22;52586;-43.152;172.732;2023-07-31T12:38:44;16.70;54.90
65826;DHT22;52586;-43.152;172.732;2023-07-31T12:41:15;16.70;55.60
65826;DHT22;52586;-43.152;172.732;2023-07-31T12:43:46;16.70;55.10
65826;DHT22;52586;-43.152;172.732;2023-07-31T12:46:19;16.70;55.10
65826;DHT22;52586;-43.152;172.732;2023-07-31T12:48:50;16.70;55.10
65826;DHT22;52586;-43.152;172.732;2023-07-31T12:51:20;16.70;55.10
65826;DHT22;52586;-43.152;172.732;2023-07-31T12:53:51;16.70;55.20
65826;DHT22;52586;-43.152;172.732;2023-07-31T12:56:22;16.70;55.10
65826;DHT22;52586;-43.152;172.732;2023-07-31T12:58:52;16.70;55.00
65826;DHT22;52586;-43.152;172.732;2023-07-31T13:01:25;16.70;55.00
65826;DHT22;52586;-43.152;172.732;2023-07-31T13:03:55;16.70;55.00
65826;DHT22;52586;-43.152;172.732;2023-07-31T13:06:26;16.70;54.90
65826;DHT22;52586;-43.152;172.732;2023-07-31T13:08:57;16.70;54.90
65826;DHT22;52586;-43.152;172.732;2023-07-31T13:11:27;16.70;54.90
65826;DHT22;52586;-43.152;172.732;2023-07-31T13:13:58;16.70;54.90
65826;DHT22;52586;-43.152;172.732;2023-07-31T13:16:31;16.70;54.90
65826;DHT22;52586;-43.152;172.732;2023-07-31T13:19:01;16.70;54.90
65826;DHT22;52586;-43.152;172.732;2023-07-31T13:21:32;16.60;54.80
65826;DHT22;52586;-43.152;172.732;2023-07-31T13:24:03;16.60;54.90
65826;DHT22;52586;-43.152;172.732;2023-07-31T13:26:34;16.60;54.90
65826;DHT22;52586;-43.152;172.732;2023-07-31T13:29:05;16.60;55.00
65826;DHT22;52586;-43.152;172.732;2023-07-31T13:31:37;16.70;55.10
65826;DHT22;52586;-43.152;172.732;2023-07-31T13:34:08;16.60;55.00
65826;DHT22;52586;-43.152;172.732;2023-07-31T13:36:38;16.70;55.10
65826;DHT22;52586;-43.152;172.732;2023-07-31T13:39:09;16.70;54.90
65826;DHT22;52586;-43.152;172.732;2023-07-31T13:41:40;16.70;54.90
65826;DHT22;52586;-43.152;172.732;2023-07-31T13:44:10;16.70;54.80
65826;DHT22;52586;-43.152;172.732;2023-07-31T13:46:43;16.60;54.70
65826;DHT22;52586;-43.152;172.732;2023-07-31T13:49:13;16.60;54.70
65826;DHT22;52586;-43.152;172.732;2023-07-31T13:51:44;16.70;54.70
65826;DHT22;52586;-43.152;172.732;2023-07-31T13:54:15;16.70;54.70
65826;DHT22;52586;-43.152;172.732;2023-07-31T13:56:46;16.60;54.70
65826;DHT22;52586;-43.152;172.732;2023-07-31T13:59:16;16.70;54.70
65826;DHT22;52586;-43.152;172.732;2023-07-31T14:01:49;16.60;54.60
65826;DHT22;52586;-43.152;172.732;2023-07-31T14:04:20;16.60;54.70
65826;DHT22;52586;-43.152;172.732;2023-07-31T14:06:52;16.60;54.70
65826;DHT22;52586;-43.152;172.732;2023-07-31T14:09:23;16.60;54.80
65826;DHT22;52586;-43.152;172.732;2023-07-31T14:11:53;16.60;54.80
65826;DHT22;52586;-43.152;172.732;2023-07-31T14:14:24;16.60;54.80
65826;DHT22;52586;-43.152;172.732;2023-07-31T14:16:56;16.60;54.80
65826;DHT22;52586;-43.152;172.732;2023-07-31T14:19:27;16.60;54.70
65826;DHT22;52586;-43.152;172.732;2023-07-31T14:21:59;16.60;54.60
65826;DHT22;52586;-43.152;172.732;2023-07-31T14:24:30;16.70;54.70
65826;DHT22;52586;-43.152;172.732;2023-07-31T14:27:00;16.60;54.60
65826;DHT22;52586;-43.152;172.732;2023-07-31T14:29:31;16.60;54.50
65826;DHT22;52586;-43.152;172.732;2023-07-31T14:32:04;16.70;54.60
65826;DHT22;52586;-43.152;172.732;2023-07-31T14:34:34;16.60;54.60
65826;DHT22;52586;-43.152;172.732;2023-07-31T14:37:05;16.60;54.50
65826;DHT22;52586;-43.152;172.732;2023-07-31T14:39:36;16.60;54.60
65826;DHT22;52586;-43.152;172.732;2023-07-31T14:42:07;16.60;54.60
65826;DHT22;52586;-43.152;172.732;2023-07-31T14:44:38;16.60;54.70
65826;DHT22;52586;-43.152;172.732;2023-07-31T14:47:10;16.60;54.70
65826;DHT22;52586;-43.152;172.732;2023-07-31T14:49:41;16.60;54.70
65826;DHT22;52586;-43.152;172.732;2023-07-31T14:52:11;16.60;54.80
65826;DHT22;52586;-43.152;172.732;2023-07-31T14:54:42;16.60;54.80
65826;DHT22;52586;-43.152;172.732;2023-07-31T14:57:13;16.60;54.80
65826;DHT22;52586;-43.152;172.732;2023-07-31T14:59:43;16.60;54.70
65826;DHT22;52586;-43.152;172.732;2023-07-31T15:02:16;16.60;54.70
65826;DHT22;52586;-43.152;172.732;2023-07-31T15:04:47;16.70;54.70
65826;DHT22;52586;-43.152;172.732;2023-07-31T15:07:18;16.60;54.60
65826;DHT22;52586;-43.152;172.732;2023-07-31T15:09:48;16.60;54.60
65826;DHT22;52586;-43.152;172.732;2023-07-31T15:12:19;16.60;54.60
65826;DHT22;52586;-43.152;172.732;2023-07-31T15:14:50;16.60;54.70